createdAt,value
2022-08-10T00:00:00.841Z,23.70
2022-08-10T00:02:30.087Z,23.70
2022-08-10T00:04:57.978Z,23.60
2022-08-10T00:07:25.886Z,23.60
2022-08-10T00:09:53.768Z,23.60
2022-08-10T00:12:21.677Z,23.50
2022-08-10T00:14:49.638Z,23.50
2022-08-10T00:17:17.507Z,23.50
2022-08-10T00:20:03.162Z,23.50
2022-08-10T00:22:32.785Z,23.50
2022-08-10T00:25:00.863Z,23.40
2022-08-10T00:27:58.849Z,23.40
2022-08-10T00:30:17.926Z,23.40
2022-08-10T00:32:45.758Z,23.40
2022-08-10T00:35:15.005Z,23.30
2022-08-10T00:37:42.894Z,23.30
2022-08-10T00:40:35.450Z,23.30
2022-08-10T00:43:06.227Z,23.30
2022-08-10T00:45:34.559Z,23.20
2022-08-10T00:48:02.841Z,23.20
2022-08-10T00:50:32.280Z,23.20
2022-08-10T00:53:00.540Z,23.20
2022-08-10T00:55:28.724Z,23.20
2022-08-10T00:57:57.518Z,23.10
2022-08-10T01:00:25.937Z,23.10
2022-08-10T01:02:53.946Z,23.10
2022-08-10T01:05:22.758Z,23.10
2022-08-10T01:08:08.714Z,23.10
2022-08-10T01:10:44.510Z,23.10
2022-08-10T01:13:22.382Z,23.00
2022-08-10T01:15:56.525Z,23.00
2022-08-10T01:18:37.547Z,23.00
2022-08-10T01:21:57.266Z,23.00
2022-08-10T01:24:40.385Z,23.00
2022-08-10T01:27:20.071Z,23.00
2022-08-10T01:30:00.773Z,22.90
2022-08-10T01:32:48.346Z,22.90
2022-08-10T01:35:23.084Z,22.90
2022-08-10T01:37:58.329Z,22.90
2022-08-10T01:40:29.405Z,22.90
2022-08-10T01:42:59.842Z,22.80
2022-08-10T01:45:44.835Z,22.80
2022-08-10T01:48:32.420Z,22.70
2022-08-10T01:51:09.013Z,22.70
2022-08-10T01:53:41.792Z,22.70
2022-08-10T01:56:13.224Z,22.60
2022-08-10T01:58:43.189Z,22.60
2022-08-10T02:01:16.695Z,22.60
2022-08-10T02:04:04.007Z,22.60
2022-08-10T02:06:37.928Z,22.60
2022-08-10T02:09:07.929Z,22.60
2022-08-10T02:11:55.821Z,22.60
2022-08-10T02:14:32.996Z,22.50
2022-08-10T02:17:05.711Z,22.50
2022-08-10T02:19:36.319Z,22.50
2022-08-10T02:22:45.807Z,22.50
2022-08-10T02:24:55.463Z,22.40
2022-08-10T02:27:25.511Z,22.40
2022-08-10T02:29:54.919Z,22.40
2022-08-10T02:32:38.527Z,22.40
2022-08-10T02:35:13.206Z,22.30
2022-08-10T02:37:52.343Z,22.30
2022-08-10T02:45:02.365Z,22.30
2022-08-10T02:45:29.837Z,22.30
2022-08-10T02:46:10.270Z,22.20
2022-08-10T02:48:43.667Z,22.20
2022-08-10T02:51:16.842Z,22.20
2022-08-10T02:53:55.884Z,22.20
2022-08-10T02:56:33.099Z,22.20
2022-08-10T02:59:06.706Z,22.20
2022-08-10T03:01:38.288Z,22.10
2022-08-10T03:04:12.904Z,22.10
2022-08-10T03:06:45.757Z,22.10
2022-08-10T03:09:16.771Z,22.00
2022-08-10T03:12:35.362Z,22.00
2022-08-10T03:14:35.195Z,22.00
2022-08-10T03:17:04.203Z,22.00
2022-08-10T03:20:34.944Z,22.00
2022-08-10T03:22:24.017Z,21.90
2022-08-10T03:24:53.862Z,21.90
2022-08-10T03:27:23.498Z,21.90
2022-08-10T03:30:29.783Z,21.90
2022-08-10T03:32:41.142Z,21.90
2022-08-10T03:35:12.437Z,21.80
2022-08-10T03:37:40.506Z,21.80
2022-08-10T03:40:10.071Z,21.80
2022-08-10T03:42:40.831Z,21.80
2022-08-10T03:45:10.211Z,21.80
2022-08-10T03:47:40.042Z,21.70
2022-08-10T03:50:45.103Z,21.70
2022-08-10T03:52:59.687Z,21.70
2022-08-10T03:56:26.717Z,21.70
2022-08-10T03:58:16.389Z,21.60
2022-08-10T04:00:45.123Z,21.60
2022-08-10T04:03:13.942Z,21.60
2022-08-10T04:05:43.312Z,21.60
2022-08-10T04:08:11.609Z,21.50
2022-08-10T04:10:39.457Z,21.60
2022-08-10T04:13:07.489Z,21.50
2022-08-10T04:15:35.394Z,21.50
2022-08-10T04:18:06.402Z,21.50
2022-08-10T04:20:39.527Z,21.40
2022-08-10T04:23:13.357Z,21.40
2022-08-10T04:25:41.859Z,21.40
2022-08-10T04:28:11.061Z,21.40
2022-08-10T04:30:40.650Z,21.40
2022-08-10T04:33:11.386Z,21.30
2022-08-10T04:35:40.874Z,21.30
2022-08-10T04:38:11.190Z,21.30
2022-08-10T04:40:39.290Z,21.30
2022-08-10T04:43:12.900Z,21.30
2022-08-10T04:45:49.751Z,21.30
2022-08-10T04:48:39.977Z,21.20
2022-08-10T04:51:18.046Z,21.20
2022-08-10T04:54:04.518Z,21.20
2022-08-10T04:56:36.359Z,21.20
2022-08-10T04:59:05.043Z,21.20
2022-08-10T05:02:27.026Z,21.20
2022-08-10T05:04:36.054Z,21.20
2022-08-10T05:07:07.497Z,21.10
2022-08-10T05:10:04.002Z,21.20
2022-08-10T05:12:24.808Z,21.10
2022-08-10T05:14:54.583Z,21.10
2022-08-10T05:17:23.713Z,21.10
2022-08-10T05:20:04.854Z,21.10
2022-08-10T05:22:35.216Z,21.10
2022-08-10T05:25:05.923Z,21.10
2022-08-10T05:27:34.052Z,21.10
2022-08-10T05:30:03.690Z,21.10
2022-08-10T05:32:32.606Z,21.10
2022-08-10T05:35:20.570Z,21.10
2022-08-10T05:38:10.740Z,21.10
2022-08-10T05:40:39.440Z,21.10
2022-08-10T05:43:07.930Z,21.10
2022-08-10T05:46:17.628Z,21.10
2022-08-10T05:48:56.457Z,21.10
2022-08-10T05:51:12.508Z,21.10
2022-08-10T05:54:03.362Z,21.10
2022-08-10T05:56:53.950Z,21.10
2022-08-10T06:00:35.541Z,21.10
2022-08-10T06:02:41.136Z,21.10
2022-08-10T06:05:00.830Z,21.10
2022-08-10T06:07:31.223Z,21.10
2022-08-10T06:10:01.728Z,21.10
2022-08-10T06:12:33.498Z,21.10
2022-08-10T06:15:10.207Z,21.20
2022-08-10T06:17:59.073Z,21.20
2022-08-10T06:20:35.842Z,21.20
2022-08-10T06:23:05.630Z,21.20
2022-08-10T06:28:25.720Z,21.30
2022-08-10T06:30:55.656Z,21.30
2022-08-10T06:33:25.227Z,21.30
2022-08-10T06:35:56.142Z,21.30
2022-08-10T06:38:27.641Z,21.40
2022-08-10T06:40:58.800Z,21.40
2022-08-10T06:43:29.869Z,21.40
2022-08-10T06:46:07.219Z,21.50
2022-08-10T06:48:40.377Z,21.50
2022-08-10T06:51:12.673Z,21.50
2022-08-10T06:53:53.846Z,21.60
2022-08-10T06:56:38.015Z,21.60
2022-08-10T06:59:13.224Z,21.70
2022-08-10T07:01:54.005Z,21.70
2022-08-10T07:04:32.003Z,21.80
2022-08-10T07:07:03.411Z,21.80
2022-08-10T07:09:32.923Z,21.80
2022-08-10T07:12:08.139Z,21.90
2022-08-10T07:14:42.583Z,22.00
2022-08-10T07:17:15.899Z,22.00
2022-08-10T07:19:50.494Z,22.00
2022-08-10T07:23:50.631Z,22.10
2022-08-10T07:25:11.622Z,22.20
2022-08-10T07:28:00.178Z,22.20
2022-08-10T07:30:32.867Z,22.30
2022-08-10T07:33:02.822Z,22.40
2022-08-10T07:35:42.393Z,22.40
2022-08-10T07:38:17.035Z,22.50
2022-08-10T07:40:46.263Z,22.50
2022-08-10T07:43:15.027Z,22.60
2022-08-10T07:45:44.488Z,22.70
2022-08-10T07:48:17.100Z,22.70
2022-08-10T07:50:47.271Z,22.80
2022-08-10T07:53:20.281Z,22.90
2022-08-10T07:56:01.475Z,22.90
2022-08-10T07:58:39.314Z,23.00
2022-08-10T08:01:11.198Z,23.10
2022-08-10T08:03:41.351Z,23.20
2022-08-10T08:06:12.069Z,23.20
2022-08-10T08:08:41.875Z,23.20
2022-08-10T08:11:25.609Z,23.30
2022-08-10T08:13:55.489Z,23.40
2022-08-10T08:16:25.431Z,23.50
2022-08-10T08:19:26.942Z,23.50
2022-08-10T08:24:05.778Z,23.60
2022-08-10T08:24:36.661Z,23.70
2022-08-10T08:27:06.042Z,23.70
2022-08-10T08:29:37.232Z,23.80
2022-08-10T08:32:08.232Z,23.90
2022-08-10T08:34:39.671Z,24.00
2022-08-10T08:37:10.519Z,24.00
2022-08-10T08:39:38.372Z,24.10
2022-08-10T08:42:19.389Z,24.10
2022-08-10T08:45:00.345Z,24.20
2022-08-10T08:48:04.644Z,24.30
2022-08-10T08:50:45.832Z,24.30
2022-08-10T08:54:01.693Z,24.40
2022-08-10T08:56:24.851Z,24.50
2022-08-10T08:59:06.684Z,24.60
2022-08-10T09:01:49.755Z,24.70
2022-08-10T09:04:49.594Z,24.80
2022-08-10T09:08:00.341Z,24.80
2022-08-10T09:10:46.482Z,24.90
2022-08-10T09:13:26.546Z,25.00
2022-08-10T09:16:06.225Z,25.00
2022-08-10T09:18:42.835Z,25.10
2022-08-10T09:21:22.718Z,25.10
2022-08-10T09:24:04.661Z,25.20
2022-08-10T09:26:47.891Z,25.30
2022-08-10T09:29:24.258Z,25.40
2022-08-10T09:36:15.120Z,25.40
2022-08-10T09:36:22.793Z,25.40
2022-08-10T09:38:02.574Z,25.50
2022-08-10T09:41:03.074Z,25.60
2022-08-10T09:43:37.208Z,25.70
2022-08-10T09:46:12.684Z,25.70
2022-08-10T09:48:48.387Z,25.80
2022-08-10T09:51:47.161Z,25.80
2022-08-10T09:54:31.164Z,25.90
2022-08-10T09:57:43.539Z,26.00
2022-08-10T10:00:09.067Z,26.10
2022-08-10T10:02:45.258Z,26.10
2022-08-10T10:05:25.206Z,26.10
2022-08-10T10:07:58.819Z,26.30
2022-08-10T10:10:36.949Z,26.30
2022-08-10T10:13:54.642Z,26.40
2022-08-10T10:16:34.226Z,26.40
2022-08-10T10:19:11.518Z,26.50
2022-08-10T10:21:54.933Z,26.50
2022-08-10T10:24:34.338Z,26.60
2022-08-10T10:27:16.817Z,26.80
2022-08-10T10:29:58.123Z,26.80
2022-08-10T10:32:46.026Z,26.90
2022-08-10T10:35:28.250Z,27.00
2022-08-10T10:38:01.151Z,27.00
2022-08-10T10:40:40.219Z,27.00
2022-08-10T10:43:24.498Z,27.10
2022-08-10T10:46:07.996Z,27.20
2022-08-10T10:48:42.428Z,27.30
2022-08-10T10:51:17.312Z,27.30
2022-08-10T10:54:00.684Z,27.30
2022-08-10T10:56:36.506Z,27.40
2022-08-10T10:59:53.801Z,27.40
2022-08-10T11:02:14.420Z,27.50
2022-08-10T11:04:48.019Z,27.60
2022-08-10T11:07:28.431Z,27.70
2022-08-10T11:10:09.824Z,27.80
2022-08-10T11:14:22.903Z,27.80
2022-08-10T11:15:58.601Z,27.90
2022-08-10T11:18:34.118Z,27.90
2022-08-10T11:21:10.722Z,28.10
2022-08-10T11:24:46.922Z,28.10
2022-08-10T11:26:45.490Z,28.10
2022-08-10T11:29:20.604Z,28.20
2022-08-10T11:31:58.891Z,28.30
2022-08-10T11:34:48.807Z,28.30
2022-08-10T11:37:30.117Z,28.40
2022-08-10T11:40:25.455Z,28.50
2022-08-10T11:43:05.446Z,28.50
2022-08-10T11:45:36.699Z,28.50
2022-08-10T11:48:13.863Z,28.60
2022-08-10T11:51:05.771Z,28.70
2022-08-10T11:53:43.547Z,28.80
2022-08-10T11:56:17.179Z,28.80
2022-08-10T11:59:16.700Z,28.90
2022-08-10T12:01:46.721Z,29.00
2022-08-10T12:04:18.249Z,29.00
2022-08-10T12:06:56.580Z,29.10
2022-08-10T12:10:09.094Z,29.20
2022-08-10T12:12:14.913Z,29.20
2022-08-10T12:14:51.406Z,29.30
2022-08-10T12:17:23.821Z,29.40
2022-08-10T12:20:04.066Z,29.30
2022-08-10T12:22:37.426Z,29.40
2022-08-10T12:25:55.033Z,29.50
2022-08-10T12:28:08.585Z,29.60
2022-08-10T12:30:43.031Z,29.60
2022-08-10T12:33:18.701Z,29.60
2022-08-10T12:36:16.919Z,29.60
2022-08-10T12:38:47.449Z,29.80
2022-08-10T12:41:43.163Z,29.90
2022-08-10T12:44:14.202Z,30.00
2022-08-10T12:46:51.295Z,30.00
2022-08-10T12:49:23.980Z,30.10
2022-08-10T12:52:01.153Z,30.10
2022-08-10T12:54:35.857Z,30.30
2022-08-10T12:57:08.990Z,30.30
2022-08-10T12:59:43.512Z,30.40
2022-08-10T13:02:15.023Z,30.50
2022-08-10T13:04:45.717Z,30.70
2022-08-10T13:08:03.569Z,30.60
2022-08-10T13:10:11.081Z,30.50
2022-08-10T13:12:41.635Z,30.60
2022-08-10T13:15:45.593Z,30.60
2022-08-10T13:18:18.690Z,30.70
2022-08-10T13:20:51.712Z,30.80
2022-08-10T13:23:24.887Z,30.80
2022-08-10T13:25:56.036Z,30.90
2022-08-10T13:28:35.454Z,31.00
2022-08-10T13:31:11.480Z,31.10
2022-08-10T13:34:40.734Z,31.20
2022-08-10T13:36:38.875Z,31.10
2022-08-10T13:39:09.492Z,31.10
2022-08-10T13:41:41.259Z,31.20
2022-08-10T13:44:12.498Z,31.20
2022-08-10T13:46:42.486Z,31.20
2022-08-10T13:49:12.813Z,31.30
2022-08-10T13:51:56.836Z,31.40
2022-08-10T13:54:30.109Z,31.50
2022-08-10T13:56:59.213Z,31.50
2022-08-10T14:00:33.116Z,31.50
2022-08-10T14:02:24.989Z,31.50
2022-08-10T14:04:55.929Z,31.50
2022-08-10T14:07:24.915Z,31.70
2022-08-10T14:10:01.991Z,31.80
2022-08-10T14:12:31.875Z,31.90
2022-08-10T14:15:03.357Z,31.90
2022-08-10T14:17:32.269Z,32.00
2022-08-10T14:20:10.602Z,32.10
2022-08-10T14:22:42.022Z,32.10
2022-08-10T14:25:13.397Z,32.10
2022-08-10T14:28:03.199Z,32.10
2022-08-10T14:30:33.206Z,32.10
2022-08-10T14:33:04.669Z,32.20
2022-08-10T14:36:20.846Z,32.20
2022-08-10T14:38:28.197Z,32.30
2022-08-10T14:40:59.772Z,32.30
2022-08-10T14:43:29.672Z,32.20
2022-08-10T14:46:01.340Z,32.20
2022-08-10T14:48:33.821Z,32.20
2022-08-10T14:51:03.951Z,32.30
2022-08-10T14:53:35.041Z,32.40
2022-08-10T14:56:09.428Z,32.50
2022-08-10T14:58:39.545Z,32.60
2022-08-10T15:02:00.312Z,32.50
2022-08-10T15:04:19.416Z,32.40
2022-08-10T15:06:55.050Z,32.30
2022-08-10T15:09:25.507Z,32.20
2022-08-10T15:12:13.901Z,32.10
2022-08-10T15:14:45.817Z,32.20
2022-08-10T15:17:17.622Z,32.20
2022-08-10T15:20:02.977Z,32.20
2022-08-10T15:22:38.452Z,32.20
2022-08-10T15:25:18.865Z,32.30
2022-08-10T15:27:54.478Z,32.30
2022-08-10T15:30:30.045Z,32.30
2022-08-10T15:33:21.625Z,32.40
2022-08-10T15:36:26.394Z,32.40
2022-08-10T15:39:00.266Z,32.50
2022-08-10T15:41:58.820Z,32.50
2022-08-10T15:44:38.282Z,32.40
2022-08-10T15:47:10.306Z,32.30
2022-08-10T15:49:45.876Z,32.30
2022-08-10T15:52:38.676Z,32.20
2022-08-10T15:55:41.566Z,32.20
2022-08-10T15:58:06.656Z,32.20
2022-08-10T16:00:40.536Z,32.20
2022-08-10T16:03:14.567Z,32.30
2022-08-10T16:06:01.702Z,32.30
2022-08-10T16:08:55.801Z,32.30
2022-08-10T16:11:38.314Z,32.20
2022-08-10T16:14:16.368Z,32.20
2022-08-10T16:16:50.334Z,32.20
2022-08-10T16:19:24.149Z,32.20
2022-08-10T16:21:57.864Z,32.20
2022-08-10T16:24:30.735Z,32.30
2022-08-10T16:27:01.742Z,32.30
2022-08-10T16:29:30.147Z,32.20
2022-08-10T16:32:02.923Z,32.30
2022-08-10T16:34:33.025Z,32.20
2022-08-10T16:37:04.280Z,32.20
2022-08-10T16:39:58.356Z,32.20
2022-08-10T16:42:28.032Z,32.10
2022-08-10T16:45:02.405Z,32.10
2022-08-10T16:47:34.023Z,32.10
2022-08-10T16:50:04.546Z,32.10
2022-08-10T16:52:33.421Z,32.00
2022-08-10T16:55:16.613Z,31.90
2022-08-10T16:57:55.559Z,31.90
2022-08-10T17:00:25.684Z,31.90
2022-08-10T17:02:59.098Z,31.90
2022-08-10T17:06:10.322Z,31.90
2022-08-10T17:08:20.591Z,31.90
2022-08-10T17:10:52.199Z,31.90
2022-08-10T17:13:23.672Z,31.80
2022-08-10T17:15:57.478Z,31.80
2022-08-10T17:18:29.580Z,31.70
2022-08-10T17:21:01.198Z,31.60
2022-08-10T17:23:32.632Z,31.60
2022-08-10T17:26:06.457Z,31.50
2022-08-10T17:28:39.757Z,31.50
2022-08-10T17:31:23.500Z,31.50
2022-08-10T17:33:58.754Z,31.40
2022-08-10T17:36:33.199Z,31.40
2022-08-10T17:39:02.778Z,31.40
2022-08-10T17:41:34.398Z,31.40
2022-08-10T17:44:04.883Z,31.40
2022-08-10T17:46:33.709Z,31.30
2022-08-10T17:49:08.626Z,31.30
2022-08-10T17:51:39.176Z,31.30
2022-08-10T17:54:09.585Z,31.20
2022-08-10T17:56:38.903Z,31.20
2022-08-10T17:59:17.630Z,31.10
2022-08-10T18:01:58.742Z,31.10
2022-08-10T18:04:41.913Z,31.10
2022-08-10T18:07:12.528Z,31.00
2022-08-10T18:09:44.316Z,30.90
2022-08-10T18:12:17.834Z,30.90
2022-08-10T18:14:49.267Z,30.80
2022-08-10T18:17:19.133Z,30.80
2022-08-10T18:19:53.918Z,30.70
2022-08-10T18:22:22.600Z,30.60
2022-08-10T18:24:52.713Z,30.60
2022-08-10T18:27:22.116Z,30.50
2022-08-10T18:30:11.697Z,30.50
2022-08-10T18:32:42.095Z,30.40
2022-08-10T18:35:14.035Z,30.30
2022-08-10T18:37:42.485Z,30.30
2022-08-10T18:40:12.054Z,30.20
2022-08-10T18:42:47.442Z,30.10
2022-08-10T18:45:21.210Z,30.10
2022-08-10T18:47:59.627Z,30.00
2022-08-10T18:50:32.870Z,29.90
2022-08-10T18:53:03.526Z,29.80
2022-08-10T18:55:35.453Z,29.70
2022-08-10T18:58:45.134Z,29.70
2022-08-10T19:01:30.425Z,29.60
2022-08-10T19:04:13.026Z,29.50
2022-08-10T19:07:05.198Z,29.40
2022-08-10T19:09:52.035Z,29.30
2022-08-10T19:12:40.422Z,29.20
2022-08-10T19:15:23.227Z,29.10
2022-08-10T19:18:07.225Z,29.00
2022-08-10T19:20:42.211Z,28.90
2022-08-10T19:23:38.689Z,28.80
2022-08-10T19:26:42.474Z,28.80
2022-08-10T19:30:12.153Z,28.70
2022-08-10T19:32:21.482Z,28.50
2022-08-10T19:35:00.995Z,28.40
2022-08-10T19:37:36.161Z,28.40
2022-08-10T19:40:46.196Z,28.30
2022-08-10T19:43:30.779Z,28.20
2022-08-10T19:46:14.510Z,28.10
2022-08-10T19:48:48.517Z,28.00
2022-08-10T19:51:23.872Z,28.00
2022-08-10T19:54:00.374Z,27.90
2022-08-10T19:56:39.272Z,27.80
2022-08-10T20:00:01.955Z,27.80
2022-08-10T20:02:10.019Z,27.70
2022-08-10T20:04:47.200Z,27.60
2022-08-10T20:07:19.798Z,27.50
2022-08-10T20:09:55.035Z,27.50
2022-08-10T20:12:34.629Z,27.40
2022-08-10T20:15:06.947Z,27.30
2022-08-10T20:17:52.053Z,27.20
2022-08-10T20:20:31.370Z,27.20
2022-08-10T20:23:10.341Z,27.10
2022-08-10T20:25:42.373Z,27.10
2022-08-10T20:28:19.791Z,27.00
2022-08-10T20:30:52.509Z,26.90
2022-08-10T20:33:28.346Z,26.90
2022-08-10T20:36:03.488Z,26.80
2022-08-10T20:38:39.194Z,26.70
2022-08-10T20:41:19.107Z,26.60
2022-08-10T20:44:01.173Z,26.60
2022-08-10T20:46:36.847Z,26.50
2022-08-10T20:49:20.773Z,26.40
2022-08-10T20:51:58.203Z,26.30
2022-08-10T20:54:32.411Z,26.20
2022-08-10T20:58:03.878Z,26.20
2022-08-10T21:00:13.874Z,26.10
2022-08-10T21:03:06.812Z,26.00
2022-08-10T21:05:44.024Z,25.90
2022-08-10T21:08:18.375Z,25.90
2022-08-10T21:11:04.768Z,25.80
2022-08-10T21:13:47.587Z,25.80
2022-08-10T21:16:30.149Z,25.70
2022-08-10T21:19:28.574Z,25.60
2022-08-10T21:22:13.289Z,25.50
2022-08-10T21:24:52.272Z,25.50
2022-08-10T21:27:42.573Z,25.40
2022-08-10T21:30:17.348Z,25.40
2022-08-10T21:33:00.038Z,25.30
2022-08-10T21:35:38.384Z,25.30
2022-08-10T21:38:13.089Z,25.20
2022-08-10T21:41:18.034Z,25.10
2022-08-10T21:44:14.954Z,25.10
2022-08-10T21:47:10.856Z,25.00
2022-08-10T21:50:07.618Z,24.90
2022-08-10T21:53:03.829Z,24.90
2022-08-10T21:55:59.941Z,24.80
2022-08-10T21:58:50.502Z,24.80
2022-08-10T22:01:41.599Z,24.80
2022-08-10T22:04:29.208Z,24.70
2022-08-10T22:07:21.213Z,24.70
2022-08-10T22:10:11.970Z,24.60
2022-08-10T22:13:02.836Z,24.60
2022-08-10T22:16:05.681Z,24.60
2022-08-10T22:19:02.953Z,24.50
2022-08-10T22:22:02.073Z,24.50
2022-08-10T22:25:16.504Z,24.40
2022-08-10T22:28:03.044Z,24.40
2022-08-10T22:31:22.921Z,24.30
2022-08-10T22:34:12.190Z,24.30
2022-08-10T22:37:26.914Z,24.20
2022-08-10T22:40:21.960Z,24.10
2022-08-10T22:43:12.392Z,24.10
2022-08-10T22:46:06.077Z,24.00
2022-08-10T22:48:59.400Z,24.00
2022-08-10T22:51:35.710Z,23.90
2022-08-10T22:54:31.199Z,23.90
2022-08-10T22:57:19.837Z,23.80
2022-08-10T22:59:49.173Z,23.80
2022-08-10T23:02:29.162Z,23.70
2022-08-10T23:05:02.929Z,23.70
2022-08-10T23:07:33.050Z,23.70
2022-08-10T23:10:05.179Z,23.60
2022-08-10T23:12:38.928Z,23.60
2022-08-10T23:15:32.992Z,23.50
2022-08-10T23:18:22.696Z,23.50
2022-08-10T23:20:51.740Z,23.50
2022-08-10T23:23:23.944Z,23.40
2022-08-10T23:25:57.087Z,23.40
2022-08-10T23:28:39.131Z,23.30
2022-08-10T23:31:50.247Z,23.30
2022-08-10T23:34:08.779Z,23.20
2022-08-10T23:36:40.798Z,23.20
2022-08-10T23:39:25.517Z,23.20
2022-08-10T23:42:04.631Z,23.10
2022-08-10T23:44:41.517Z,23.00
2022-08-10T23:47:10.242Z,23.00
2022-08-10T23:49:39.028Z,23.00
2022-08-10T23:52:11.996Z,22.90
2022-08-10T23:54:45.617Z,22.90
2022-08-10T23:57:18.537Z,22.80
2022-08-10T23:59:58.767Z,22.70
